Time;durP1;ratioP1;P1;durP2;ratioP2;P2;SDS_P1;SDS_P2;PMS_P1;PMS_P2;Temp;Humidity;BMP_temperature;BMP_pressure;BME280_temperature;BME280_humidity;BME280_pressure;Samples;Min_cycle;Max_cycle;Signal;HPM_P1;HPM_P2
2021/06/07 00:01:12;;;;;;;4.43;3.28;;;;;;;28.89;38.71;97001.50;5020394;28;20048;-36
2021/06/07 00:03:37;;;;;;;4.22;3.05;;;;;;;28.88;38.73;97000.66;5037613;28;20029;-33
2021/06/07 00:06:03;;;;;;;5.38;3.10;;;;;;;28.89;38.43;97002.38;5007026;28;20036;-30
2021/06/07 00:08:28;;;;;;;6.13;2.80;;;;;;;28.90;38.44;96998.78;5028752;28;20021;-35
2021/06/07 00:10:54;;;;;;;3.83;3.08;;;;;;;28.90;38.62;96998.78;5026549;28;20038;-34
2021/06/07 00:13:20;;;;;;;4.05;3.08;;;;;;;28.89;38.63;96997.09;5035849;28;20090;-32
2021/06/07 00:15:46;;;;;;;3.80;2.85;;;;;;;28.91;38.62;97002.28;5037072;28;20396;-34
2021/06/07 00:18:11;;;;;;;3.65;2.83;;;;;;;28.90;38.55;97004.06;5028126;28;20025;-35
2021/06/07 00:20:45;;;;;;;4.78;2.97;;;;;;;28.90;38.48;97004.06;5029124;28;20051;-34
2021/06/07 00:23:11;;;;;;;3.17;2.80;;;;;;;28.91;38.46;96999.66;5035208;28;20086;-32
2021/06/07 00:25:38;;;;;;;3.53;2.95;;;;;;;28.91;38.40;97003.13;5037109;28;20024;-34
2021/06/07 00:28:03;;;;;;;3.83;2.80;;;;;;;28.90;38.57;96993.50;5038672;28;20155;-34
2021/06/07 00:30:29;;;;;;;4.40;3.15;;;;;;;28.91;38.50;97005.75;5020915;28;20635;-33
2021/06/07 00:32:54;;;;;;;6.22;3.40;;;;;;;28.91;38.40;97005.75;5031774;28;20037;-34
2021/06/07 00:35:21;;;;;;;3.40;2.90;;;;;;;28.90;38.55;97001.44;5033412;28;20415;-32
2021/06/07 00:37:46;;;;;;;3.13;2.53;;;;;;;28.92;38.54;96998.69;5032689;28;20032;-33
2021/06/07 00:40:12;;;;;;;4.18;2.92;;;;;;;28.91;38.43;97005.75;5023752;28;20364;-32
2021/06/07 00:42:38;;;;;;;4.15;3.30;;;;;;;28.91;38.53;96995.19;5026581;28;20032;-33
2021/06/07 00:45:07;;;;;;;3.08;2.72;;;;;;;28.92;38.33;97001.34;5026209;28;20024;-32
2021/06/07 00:47:32;;;;;;;3.72;3.17;;;;;;;28.90;38.39;96998.78;5033644;28;20035;-34
2021/06/07 00:49:57;;;;;;;4.70;3.08;;;;;;;28.91;38.36;97000.47;5030224;28;20020;-34
2021/06/07 00:52:24;;;;;;;4.85;3.13;;;;;;;28.92;38.30;96993.44;5026324;28;20106;-35
2021/06/07 00:54:49;;;;;;;3.40;2.78;;;;;;;28.91;38.55;97003.13;5022999;28;20021;-34
2021/06/07 00:57:14;;;;;;;3.72;3.03;;;;;;;28.91;38.58;96995.19;5026622;28;20029;-34
2021/06/07 00:59:40;;;;;;;6.93;3.30;;;;;;;28.91;38.53;96997.84;5029874;28;20043;-30
2021/06/07 01:02:05;;;;;;;3.97;3.20;;;;;;;28.92;38.16;97001.34;5028409;28;20044;-39
2021/06/07 01:04:31;;;;;;;3.90;3.00;;;;;;;28.91;38.17;97000.47;5025229;28;21413;-36
2021/06/07 01:06:56;;;;;;;4.47;3.15;;;;;;;28.91;38.43;97000.47;5028018;28;20037;-33
2021/06/07 01:09:22;;;;;;;4.35;3.33;;;;;;;28.91;38.21;96997.00;5026104;28;20033;-35
2021/06/07 01:11:47;;;;;;;3.95;3.20;;;;;;;28.91;38.13;96989.94;5030468;28;20017;-35
2021/06/07 01:14:12;;;;;;;4.78;3.08;;;;;;;28.91;38.50;97000.47;5026950;28;20588;-37
2021/06/07 01:16:38;;;;;;;4.53;3.10;;;;;;;28.92;38.40;96990.78;5017942;28;20048;-32
2021/06/07 01:19:04;;;;;;;5.40;3.35;;;;;;;28.91;38.23;96995.19;5020205;28;20025;-37
2021/06/07 01:21:30;;;;;;;4.75;3.25;;;;;;;28.91;38.23;96992.56;5023913;28;20024;-38
2021/06/07 01:23:55;;;;;;;4.60;3.22;;;;;;;28.92;38.21;96985.50;5049945;28;20033;-33
2021/06/07 01:26:21;;;;;;;4.90;3.42;;;;;;;28.91;38.06;96987.28;5025193;28;20113;-31
2021/06/07 01:28:47;;;;;;;4.25;3.13;;;;;;;28.91;38.42;96986.47;5031152;28;20397;-33
2021/06/07 01:31:13;;;;;;;3.85;3.17;;;;;;;28.90;38.31;96985.59;5036281;28;20534;-33
2021/06/07 01:33:40;;;;;;;4.50;3.78;;;;;;;28.91;38.12;96978.53;5033806;28;20033;-34
2021/06/07 01:36:06;;;;;;;5.13;3.20;;;;;;;28.89;38.19;96976.00;5032529;28;20029;-35
2021/06/07 01:38:32;;;;;;;3.58;3.22;;;;;;;28.91;38.27;96974.09;5022781;28;20086;-35
2021/06/07 01:41:01;;;;;;;4.05;3.50;;;;;;;28.91;38.16;96974.09;5022636;28;20041;-32
2021/06/07 01:43:27;;;;;;;4.30;3.53;;;;;;;28.91;37.97;96968.81;5035384;28;20032;-34
2021/06/07 01:45:53;;;;;;;4.95;3.70;;;;;;;28.92;37.90;96967.03;5026676;28;20113;-34
2021/06/07 01:48:18;;;;;;;7.10;3.58;;;;;;;28.90;37.95;96959.22;5021393;28;20029;-32
2021/06/07 01:50:44;;;;;;;5.05;3.83;;;;;;;28.91;38.10;96963.53;5019744;28;20620;-34
2021/06/07 01:53:10;;;;;;;5.70;3.78;;;;;;;28.92;38.08;96959.97;5031779;28;20086;-35
2021/06/07 01:55:47;;;;;;;5.03;3.60;;;;;;;28.91;38.20;96963.53;5031912;28;20029;-35
2021/06/07 01:58:13;;;;;;;4.28;3.60;;;;;;;28.92;38.16;96959.97;5028175;28;20106;-34
2021/06/07 02:01:02;;;;;;;4.35;3.22;;;;;;;28.92;38.04;96959.13;5028971;28;20118;-34
2021/06/07 02:03:27;;;;;;;9.63;7.13;;;;;;;28.92;38.05;96957.31;5026062;28;20041;-34
2021/06/07 02:05:55;;;;;;;7.90;5.43;;;;;;;28.91;37.91;96958.28;5029872;28;20586;-37
2021/06/07 02:08:21;;;;;;;4.75;3.83;;;;;;;28.92;38.15;96954.69;5028865;28;20572;-37
2021/06/07 02:10:52;;;;;;;4.13;3.40;;;;;;;28.91;37.96;96963.53;5033515;28;20067;-32
2021/06/07 02:13:20;;;;;;;4.57;3.83;;;;;;;28.92;38.01;96959.13;5035306;28;20048;-32
2021/06/07 02:15:53;;;;;;;5.45;3.88;;;;;;;28.92;38.14;96959.13;5032224;28;20147;-34
2021/06/07 02:18:19;;;;;;;5.32;4.07;;;;;;;28.87;37.96;96951.47;5039532;28;20211;-35
2021/06/07 02:20:44;;;;;;;6.55;4.22;;;;;;;28.92;38.14;96965.22;5020832;28;20118;-34
2021/06/07 02:23:10;;;;;;;4.50;3.45;;;;;;;28.91;38.15;96957.44;5029275;28;20037;-36
2021/06/07 02:25:35;;;;;;;5.28;3.90;;;;;;;28.91;37.94;96966.19;5031846;28;20033;-29
2021/06/07 02:28:00;;;;;;;4.80;3.58;;;;;;;28.91;37.87;96960.91;5019320;28;20036;-35
2021/06/07 02:30:27;;;;;;;4.53;3.80;;;;;;;28.91;38.05;96958.28;5028407;28;20035;-33
2021/06/07 02:32:54;;;;;;;4.88;3.92;;;;;;;28.91;38.01;96955.63;5019310;28;21309;-36
2021/06/07 02:35:19;;;;;;;4.72;3.95;;;;;;;28.92;38.17;96959.13;5028077;28;20059;-34
2021/06/07 02:37:46;;;;;;;5.32;4.00;;;;;;;28.92;37.98;96964.41;5026125;28;20058;-34
2021/06/07 02:40:12;;;;;;;6.40;4.18;;;;;;;28.92;38.14;96964.41;5018320;28;20032;-31
2021/06/07 02:42:38;;;;;;;5.30;3.47;;;;;;;28.91;38.05;96963.53;5013277;28;20158;-34
2021/06/07 02:45:11;;;;;;;6.13;4.10;;;;;;;28.90;37.83;96961.84;5026802;28;20033;-33
2021/06/07 02:47:37;;;;;;;4.10;3.60;;;;;;;28.91;37.95;96963.53;5018031;28;20620;-31
2021/06/07 02:50:07;;;;;;;4.50;3.92;;;;;;;28.91;38.07;96963.53;5014437;28;20024;-33
2021/06/07 02:52:32;;;;;;;6.90;4.07;;;;;;;28.92;38.11;96964.41;5023539;28;20039;-36
2021/06/07 02:54:58;;;;;;;5.18;3.67;;;;;;;28.91;37.95;96973.28;5021311;28;20058;-35
2021/06/07 02:57:23;;;;;;;4.75;3.88;;;;;;;28.92;38.13;96967.03;5029716;28;20726;-34
2021/06/07 02:59:49;;;;;;;5.10;4.20;;;;;;;28.91;37.88;96963.53;5014547;28;20884;-33
2021/06/07 03:02:14;;;;;;;6.55;4.43;;;;;;;28.90;38.16;96961.84;5008106;28;20052;-35
2021/06/07 03:04:39;;;;;;;5.07;4.30;;;;;;;28.91;37.95;96958.28;5011028;28;21248;-34
2021/06/07 03:07:05;;;;;;;4.88;3.70;;;;;;;28.91;37.99;96960.91;5018985;28;20028;-35
2021/06/07 03:09:30;;;;;;;5.95;4.03;;;;;;;28.91;37.78;96968.81;5031688;28;20025;-33
2021/06/07 03:11:56;;;;;;;5.35;4.03;;;;;;;28.91;37.91;96968.81;5027887;28;20403;-37
2021/06/07 03:14:21;;;;;;;5.97;4.70;;;;;;;28.92;37.96;96969.69;5026638;28;20033;-36
2021/06/07 03:16:47;;;;;;;8.35;5.00;;;;;;;28.92;37.78;96961.78;5027486;28;20032;-31
2021/06/07 03:19:12;;;;;;;5.85;4.13;;;;;;;28.91;37.76;96963.53;5026107;28;20033;-37
2021/06/07 03:21:38;;;;;;;6.30;3.90;;;;;;;28.91;37.87;96958.28;5032520;28;20024;-34
2021/06/07 03:24:03;;;;;;;5.53;3.95;;;;;;;28.91;37.82;96963.53;5028453;28;20713;-33
2021/06/07 03:26:29;;;;;;;7.45;4.00;;;;;;;28.91;37.95;96968.00;5039366;28;20068;-32
2021/06/07 03:28:54;;;;;;;6.45;4.30;;;;;;;28.91;37.72;96963.53;5029762;28;20439;-35
2021/06/07 03:31:20;;;;;;;5.35;3.80;;;;;;;28.91;37.77;96965.34;5031603;28;20526;-36
2021/06/07 03:33:45;;;;;;;5.43;3.90;;;;;;;28.91;37.88;96974.09;5025650;28;20037;-33
2021/06/07 03:36:11;;;;;;;4.43;3.90;;;;;;;28.91;37.88;96970.63;5029694;28;20257;-34
2021/06/07 03:38:36;;;;;;;4.90;4.10;;;;;;;28.90;37.96;96977.69;5036418;28;20040;-34
2021/06/07 03:41:02;;;;;;;5.30;4.10;;;;;;;28.89;37.99;96968.09;5023841;28;20036;-30
2021/06/07 03:43:30;;;;;;;6.60;3.95;;;;;;;28.90;38.05;96967.13;5027173;28;20427;-33
2021/06/07 03:45:56;;;;;;;4.38;3.88;;;;;;;28.87;37.77;96967.28;5023788;28;20330;-31
2021/06/07 03:48:21;;;;;;;5.28;4.05;;;;;;;28.89;37.82;96969.84;5029393;28;20692;-33
2021/06/07 03:50:46;;;;;;;5.70;4.25;;;;;;;28.86;37.94;96954.19;5029293;28;20158;-34
2021/06/07 03:53:12;;;;;;;5.82;4.07;;;;;;;28.90;37.69;96972.41;5043962;28;20040;-31
2021/06/07 03:55:38;;;;;;;5.38;4.00;;;;;;;28.90;37.99;96967.13;5027392;28;20111;-36
2021/06/07 03:58:03;;;;;;;4.90;4.22;;;;;;;28.90;37.73;96969.78;5033553;28;20044;-35
2021/06/07 04:00:30;;;;;;;7.25;4.00;;;;;;;28.91;37.90;96971.47;5032319;28;20037;-36
2021/06/07 04:02:56;;;;;;;5.20;4.00;;;;;;;28.91;37.79;96971.47;5033252;28;20032;-35
2021/06/07 04:05:21;;;;;;;4.97;4.00;;;;;;;28.90;37.62;96972.41;5047503;28;20045;-32
2021/06/07 04:07:47;;;;;;;5.18;3.90;;;;;;;28.91;37.62;96971.47;5025036;28;20029;-33
2021/06/07 04:10:15;;;;;;;5.43;3.95;;;;;;;28.91;37.84;96968.81;5020899;28;20039;-33
2021/06/07 04:12:40;;;;;;;4.68;3.95;;;;;;;28.91;37.50;96968.81;5030690;28;20029;-36
2021/06/07 04:15:07;;;;;;;5.85;3.92;;;;;;;28.91;37.86;96968.00;5033911;28;20895;-32
2021/06/07 04:17:32;;;;;;;4.28;3.78;;;;;;;28.91;37.73;96968.00;5040452;28;20696;-30
2021/06/07 04:19:58;;;;;;;4.47;4.05;;;;;;;28.92;37.76;96967.03;5022534;28;20032;-33
2021/06/07 04:22:23;;;;;;;5.25;3.83;;;;;;;28.91;37.58;96966.19;5037113;28;20032;-34
2021/06/07 04:24:48;;;;;;;6.45;4.40;;;;;;;28.91;37.75;96966.19;5035367;28;20021;-34
2021/06/07 04:27:14;;;;;;;5.10;4.30;;;;;;;28.92;37.61;96969.69;5034262;28;20051;-33
2021/06/07 04:29:40;;;;;;;5.13;4.22;;;;;;;28.92;37.79;96970.50;5018010;28;20029;-34
2021/06/07 04:32:07;;;;;;;6.05;4.20;;;;;;;28.91;37.72;96965.34;4997938;28;20126;-36
2021/06/07 04:34:32;;;;;;;5.32;4.50;;;;;;;28.91;37.72;96968.81;5027877;28;20569;-29
2021/06/07 04:36:57;;;;;;;5.47;4.15;;;;;;;28.91;37.58;96968.81;5023318;28;20028;-32
2021/06/07 04:39:23;;;;;;;6.82;3.92;;;;;;;28.88;37.58;96962.88;5033529;28;20427;-35
2021/06/07 04:41:48;;;;;;;5.82;4.18;;;;;;;28.92;37.58;96969.69;5030449;28;20976;-34
2021/06/07 04:44:14;;;;;;;5.88;4.10;;;;;;;28.91;37.74;96968.81;5028583;28;20036;-34
2021/06/07 04:46:39;;;;;;;5.47;4.57;;;;;;;28.92;37.68;96969.69;5034983;28;20463;-33
2021/06/07 04:49:04;;;;;;;6.55;4.40;;;;;;;28.91;37.75;96968.81;5033178;28;20035;-34
2021/06/07 04:51:30;;;;;;;5.90;4.22;;;;;;;28.90;37.71;96961.84;5026648;28;20262;-29
2021/06/07 04:53:55;;;;;;;18.45;4.75;;;;;;;28.90;37.84;96956.59;5023444;28;20040;-35
2021/06/07 04:56:21;;;;;;;5.13;4.10;;;;;;;28.91;37.86;96958.28;5030058;28;20029;-35
2021/06/07 04:58:47;;;;;;;4.72;3.97;;;;;;;28.90;37.89;96959.22;5026948;28;20025;-34
2021/06/07 05:01:16;;;;;;;4.18;3.50;;;;;;;28.88;37.63;96958.47;5023229;28;20462;-34
2021/06/07 05:03:42;;;;;;;5.53;3.97;;;;;;;28.91;37.65;96960.09;5030726;28;20682;-37
2021/06/07 05:06:07;;;;;;;5.63;4.80;;;;;;;28.90;37.77;96946.03;5014326;28;20032;-36
2021/06/07 05:08:33;;;;;;;6.00;4.22;;;;;;;28.90;37.87;96956.59;5026908;28;20042;-36
2021/06/07 05:10:58;;;;;;;5.55;4.75;;;;;;;28.90;37.62;96951.31;5028999;28;20040;-35
2021/06/07 05:13:24;;;;;;;7.60;4.18;;;;;;;28.90;37.67;96956.59;5016801;28;20027;-37
2021/06/07 05:15:50;;;;;;;4.70;3.95;;;;;;;28.90;37.76;96948.66;5029506;28;20072;-35
2021/06/07 05:18:16;;;;;;;4.40;3.95;;;;;;;28.86;37.86;96944.50;5022139;28;22015;-34
2021/06/07 05:20:42;;;;;;;7.57;4.22;;;;;;;28.90;37.71;96951.31;5029614;28;20090;-33
2021/06/07 05:23:07;;;;;;;5.28;4.20;;;;;;;28.86;37.60;96952.41;5023061;28;20980;-32
2021/06/07 05:25:33;;;;;;;8.43;4.70;;;;;;;28.89;37.86;96957.53;5023829;28;20918;-34
2021/06/07 05:27:59;;;;;;;4.57;4.07;;;;;;;28.90;37.59;96956.59;5038485;28;20037;-36
2021/06/07 05:30:26;;;;;;;5.30;4.05;;;;;;;28.91;37.68;96962.72;5024086;28;20028;-35
2021/06/07 05:32:52;;;;;;;5.88;3.67;;;;;;;28.90;37.85;96956.59;5034265;28;20017;-36
2021/06/07 05:35:18;;;;;;;4.00;3.60;;;;;;;28.90;37.79;96961.84;5025193;28;20040;-35
2021/06/07 05:37:44;;;;;;;4.32;3.92;;;;;;;28.90;37.69;96968.91;5021143;28;20028;-30
2021/06/07 05:40:09;;;;;;;5.30;3.70;;;;;;;28.91;37.57;96968.81;5024031;28;20074;-34
2021/06/07 05:42:35;;;;;;;4.03;3.63;;;;;;;28.91;37.52;96973.28;5026445;28;20135;-32
2021/06/07 05:45:01;;;;;;;3.70;3.35;;;;;;;28.90;37.74;96977.69;5022607;28;20617;-34
2021/06/07 05:47:27;;;;;;;6.63;4.07;;;;;;;28.91;37.48;96970.63;5025906;28;20041;-36
2021/06/07 05:49:52;;;;;;;4.40;4.00;;;;;;;28.90;37.74;96972.41;5028686;28;20017;-32
2021/06/07 05:52:17;;;;;;;4.03;3.50;;;;;;;28.89;37.68;96976.00;5025204;28;20617;-38
2021/06/07 05:54:43;;;;;;;4.00;3.60;;;;;;;28.90;37.82;96972.41;5036053;28;20037;-35
2021/06/07 05:57:09;;;;;;;4.30;3.83;;;;;;;28.90;37.58;96977.69;5030123;28;20025;-34
2021/06/07 05:59:37;;;;;;;4.40;3.47;;;;;;;28.91;37.57;96978.53;5028210;28;20025;-36
2021/06/07 06:02:04;;;;;;;3.45;3.15;;;;;;;28.90;37.76;96988.25;5035410;28;20785;-31
2021/06/07 06:04:30;;;;;;;4.13;3.47;;;;;;;28.90;37.80;96993.50;5021379;28;20512;-31
2021/06/07 06:06:55;;;;;;;4.68;4.15;;;;;;;28.90;37.57;96985.59;5019488;28;20028;-30
2021/06/07 06:09:21;;;;;;;5.82;3.80;;;;;;;28.91;37.17;96991.72;5028058;28;20039;-37
2021/06/07 06:11:46;;;;;;;4.70;4.07;;;;;;;28.90;37.77;96996.16;5031805;28;20035;-33
2021/06/07 06:14:11;;;;;;;7.07;4.10;;;;;;;28.89;37.86;96991.81;5028040;28;20115;-38
2021/06/07 06:16:39;;;;;;;7.63;4.38;;;;;;;28.89;37.75;96990.94;5019321;28;20655;-32
2021/06/07 06:19:05;;;;;;;4.95;3.95;;;;;;;28.90;37.72;96993.50;5019689;28;20040;-34
2021/06/07 06:21:30;;;;;;;5.22;4.72;;;;;;;28.89;37.91;96991.81;5026421;28;20033;-35
2021/06/07 06:23:56;;;;;;;4.07;3.67;;;;;;;28.90;37.68;96995.28;5016199;28;20028;-37
2021/06/07 06:26:21;;;;;;;6.07;3.75;;;;;;;28.90;37.71;96997.94;5028813;28;20033;-34
2021/06/07 06:28:47;;;;;;;5.00;4.07;;;;;;;28.88;37.73;96992.75;5021510;28;20024;-32
2021/06/07 06:31:13;;;;;;;4.60;3.65;;;;;;;28.89;37.64;96993.56;5019595;28;20044;-30
2021/06/07 06:33:38;;;;;;;4.80;4.07;;;;;;;28.90;37.62;96995.28;5034214;28;21154;-39
2021/06/07 06:36:04;;;;;;;4.55;4.00;;;;;;;28.90;37.74;96993.50;5024647;28;20044;-34
2021/06/07 06:38:29;;;;;;;4.45;3.90;;;;;;;28.89;37.56;97002.38;5016924;28;20059;-30
2021/06/07 06:40:55;;;;;;;5.15;3.97;;;;;;;28.89;37.66;96997.09;5037736;28;20033;-35
2021/06/07 06:43:21;;;;;;;6.25;3.72;;;;;;;28.90;37.66;96997.94;5029375;28;20139;-33
2021/06/07 06:45:46;;;;;;;8.68;5.13;;;;;;;28.91;37.78;96994.38;5029706;28;20063;-31
2021/06/07 06:48:12;;;;;;;7.82;4.13;;;;;;;28.91;37.63;97002.28;5015147;28;20401;-32
2021/06/07 06:50:39;;;;;;;5.65;4.10;;;;;;;28.90;37.95;97004.06;5017717;28;20029;-33
2021/06/07 06:53:06;;;;;;;4.60;4.10;;;;;;;28.91;37.86;97010.19;5029113;28;20040;-31
2021/06/07 06:55:31;;;;;;;6.03;3.67;;;;;;;28.91;37.55;97004.94;5031260;28;20033;-33
2021/06/07 06:57:57;;;;;;;9.05;4.10;;;;;;;28.90;37.72;97006.72;5024236;28;20055;-35
2021/06/07 07:00:23;;;;;;;5.90;4.15;;;;;;;28.90;37.79;97009.34;5022453;28;20118;-36
2021/06/07 07:02:49;;;;;;;4.40;4.00;;;;;;;28.91;37.58;97011.03;5029853;28;20024;-38
2021/06/07 07:05:14;;;;;;;4.80;4.10;;;;;;;28.91;37.63;97011.03;5008911;28;22987;-32
2021/06/07 07:07:40;;;;;;;4.22;3.65;;;;;;;28.91;37.31;97011.03;5027678;28;20028;-40
2021/06/07 07:10:06;;;;;;;4.55;3.75;;;;;;;28.91;37.43;97011.03;5026433;28;20025;-34
2021/06/07 07:12:31;;;;;;;4.65;3.55;;;;;;;28.90;37.64;97009.34;5026382;28;20064;-32
2021/06/07 07:14:57;;;;;;;9.75;3.92;;;;;;;28.91;37.44;97007.56;5026239;28;20685;-33
2021/06/07 07:17:22;;;;;;;5.40;3.65;;;;;;;28.92;37.43;97017.16;5019308;28;20036;-36
2021/06/07 07:19:48;;;;;;;6.28;3.38;;;;;;;28.91;37.29;97013.66;5026327;28;20430;-32
2021/06/07 07:22:14;;;;;;;5.88;3.67;;;;;;;28.91;37.40;97011.03;5021976;28;20368;-35
2021/06/07 07:24:43;;;;;;;4.75;3.60;;;;;;;28.92;37.32;97010.06;5025477;28;20052;-34
2021/06/07 07:27:13;;;;;;;4.65;3.60;;;;;;;28.92;37.20;97012.72;5024126;28;20028;-31
2021/06/07 07:29:39;;;;;;;5.18;3.92;;;;;;;28.91;37.42;97005.75;5023567;28;20099;-34
2021/06/07 07:32:05;;;;;;;6.68;3.88;;;;;;;28.93;37.45;97013.56;5026303;28;20075;-37
2021/06/07 07:34:31;;;;;;;3.65;3.28;;;;;;;28.92;37.40;97018.00;5019674;28;20651;-34
2021/06/07 07:36:56;;;;;;;5.75;3.58;;;;;;;28.92;37.42;97018.00;5022994;28;20033;-36
2021/06/07 07:39:22;;;;;;;4.47;3.30;;;;;;;28.93;37.27;97013.56;5024824;28;20625;-37
2021/06/07 07:41:47;;;;;;;4.80;3.30;;;;;;;28.88;37.37;97003.28;5025869;28;20029;-33
2021/06/07 07:44:12;;;;;;;5.13;3.50;;;;;;;28.92;37.52;97018.00;5035381;28;20259;-34
2021/06/07 07:46:38;;;;;;;3.50;3.20;;;;;;;28.92;37.40;97018.00;5032674;28;20029;-34
2021/06/07 07:49:03;;;;;;;3.30;2.90;;;;;;;28.93;37.47;97018.84;5010840;28;22072;-36
2021/06/07 07:51:29;;;;;;;7.13;2.95;;;;;;;28.92;37.45;97023.25;5027290;28;20398;-32
2021/06/07 07:53:54;;;;;;;5.10;3.15;;;;;;;28.94;37.29;97024.03;5033021;28;20040;-33
2021/06/07 07:56:20;;;;;;;3.63;2.88;;;;;;;28.94;37.49;97031.09;5029834;28;20847;-34
2021/06/07 07:58:45;;;;;;;4.53;3.60;;;;;;;28.94;37.30;97025.81;5024842;28;20556;-37
2021/06/07 08:01:11;;;;;;;8.65;7.00;;;;;;;28.87;36.28;97030.59;5025503;28;20044;-33
2021/06/07 08:03:36;;;;;;;9.38;6.95;;;;;;;28.75;36.02;97032.22;5032331;28;20033;-34
2021/06/07 08:06:02;;;;;;;8.10;6.80;;;;;;;28.57;36.11;97028.94;5023714;28;20790;-30
2021/06/07 08:08:27;;;;;;;11.70;6.05;;;;;;;28.39;36.63;97025.59;5032690;28;20331;-35
2021/06/07 08:10:58;;;;;;;6.30;5.22;;;;;;;28.24;36.90;97014.16;5025308;28;20116;-34
2021/06/07 08:13:24;;;;;;;6.65;4.32;;;;;;;28.15;37.11;97018.22;5027410;28;20044;-34
2021/06/07 08:15:50;;;;;;;5.95;3.63;;;;;;;28.10;37.46;97021.09;5029888;28;20487;-33
2021/06/07 08:18:15;;;;;;;4.85;3.63;;;;;;;28.08;37.50;97017.72;5030649;28;20102;-35
2021/06/07 08:20:41;;;;;;;4.75;3.03;;;;;;;28.05;37.63;97017.91;5027576;28;20092;-32
2021/06/07 08:23:06;;;;;;;3.80;3.08;;;;;;;28.10;37.76;97026.38;5019645;28;20806;-34
2021/06/07 08:25:31;;;;;;;4.80;3.00;;;;;;;28.13;37.58;97020.06;5024403;28;20094;-30
2021/06/07 08:27:57;;;;;;;3.72;3.05;;;;;;;28.15;37.61;97015.56;5024352;28;20404;-33
2021/06/07 08:30:24;;;;;;;3.13;2.83;;;;;;;28.18;37.45;97018.00;5023379;28;20094;-32
2021/06/07 08:32:50;;;;;;;3.92;2.97;;;;;;;28.20;37.49;97010.00;5027438;28;20111;-34
2021/06/07 08:35:15;;;;;;;5.28;2.85;;;;;;;28.23;37.56;97015.09;5026251;28;20090;-36
2021/06/07 08:37:41;;;;;;;4.55;2.95;;;;;;;28.26;37.56;97014.97;5031803;28;20245;-32
2021/06/07 08:40:08;;;;;;;6.93;3.28;;;;;;;28.28;37.36;97013.06;5027615;28;20538;-35
2021/06/07 08:42:38;;;;;;;4.53;2.97;;;;;;;28.30;37.69;97017.31;5038490;28;20036;-34
2021/06/07 08:45:06;;;;;;;5.90;2.90;;;;;;;28.32;37.65;97011.94;5038921;28;20442;-31
2021/06/07 08:47:32;;;;;;;5.03;2.47;;;;;;;28.36;37.64;97021.38;5031401;28;20039;-35
2021/06/07 08:49:58;;;;;;;9.35;3.10;;;;;;;28.38;37.64;97013.38;5035772;28;20027;-35
2021/06/07 08:52:24;;;;;;;9.77;3.17;;;;;;;28.39;37.50;97015.94;5035482;28;20207;-37
2021/06/07 08:54:49;;;;;;;3.53;2.60;;;;;;;28.41;37.73;97024.56;5037842;28;20683;-32
2021/06/07 08:57:15;;;;;;;9.77;3.00;;;;;;;28.43;37.71;97022.72;5039595;28;20036;-36
2021/06/07 08:59:40;;;;;;;7.05;3.50;;;;;;;28.44;37.67;97018.25;5043105;28;20025;-32
2021/06/07 09:02:05;;;;;;;6.97;3.33;;;;;;;28.46;37.56;97021.66;5040428;28;20614;-34
2021/06/07 09:04:31;;;;;;;8.55;3.30;;;;;;;28.49;37.37;97028.53;5038905;28;20060;-33
2021/06/07 09:06:57;;;;;;;9.07;3.53;;;;;;;28.51;37.59;97029.28;5034806;28;20662;-35
2021/06/07 09:09:24;;;;;;;8.98;3.70;;;;;;;28.52;37.50;97036.25;5033290;28;20036;-34
2021/06/07 09:12:00;;;;;;;8.18;3.70;;;;;;;28.54;37.62;97034.38;5045181;28;20111;-34
2021/06/07 09:14:27;;;;;;;8.50;3.35;;;;;;;28.56;37.53;97037.75;5047085;28;20075;-30
2021/06/07 09:16:52;;;;;;;7.10;3.83;;;;;;;28.56;37.60;97033.34;5039083;28;20500;-33
2021/06/07 09:19:19;;;;;;;6.18;3.28;;;;;;;28.58;37.45;97025.34;5047523;28;20527;-37
2021/06/07 09:21:45;;;;;;;7.75;3.40;;;;;;;28.59;37.49;97032.31;5038569;28;20024;-33
2021/06/07 09:24:11;;;;;;;7.05;3.20;;;;;;;28.61;37.54;97030.44;5036192;28;20025;-34
2021/06/07 09:26:38;;;;;;;7.82;3.40;;;;;;;28.62;37.34;97026.00;5037606;28;20025;-32
2021/06/07 09:29:09;;;;;;;7.93;3.33;;;;;;;28.62;37.26;97032.13;5038484;28;20094;-31
2021/06/07 09:31:42;;;;;;;8.43;3.05;;;;;;;28.64;37.35;97030.22;5036688;28;20040;-32
2021/06/07 09:34:08;;;;;;;6.47;3.28;;;;;;;28.66;37.40;97038.06;5037681;28;20025;-33
2021/06/07 09:36:43;;;;;;;7.25;3.20;;;;;;;28.66;37.59;97033.63;5035725;28;20029;-39
2021/06/07 09:39:20;;;;;;;6.40;3.10;;;;;;;28.67;37.36;97027.41;5036896;28;20258;-33
2021/06/07 09:41:59;;;;;;;6.15;3.25;;;;;;;28.67;37.26;97030.06;5035936;28;20617;-33
2021/06/07 09:44:31;;;;;;;6.07;3.17;;;;;;;28.68;37.36;97031.75;5048811;28;20119;-35
2021/06/07 09:47:14;;;;;;;8.38;3.78;;;;;;;28.68;37.29;97041.47;5029819;28;20074;-37
2021/06/07 09:49:56;;;;;;;5.88;2.88;;;;;;;28.68;37.30;97039.66;5038003;28;20152;-36
2021/06/07 09:52:24;;;;;;;6.22;3.10;;;;;;;28.70;37.35;97039.56;5031790;28;20029;-37
2021/06/07 09:55:44;;;;;;;6.65;2.95;;;;;;;28.69;37.26;97041.34;5035673;28;20028;-34
2021/06/07 09:58:10;;;;;;;5.45;3.20;;;;;;;28.73;37.39;97035.88;4998767;28;20040;-35
2021/06/07 10:00:42;;;;;;;7.97;3.10;;;;;;;28.72;37.50;97036.84;5037996;28;20349;-34
2021/06/07 10:03:14;;;;;;;5.25;2.97;;;;;;;28.72;37.46;97037.66;5031778;28;20690;-35
2021/06/07 10:05:39;;;;;;;;;;;;;;;28.73;37.36;97043.78;5037919;28;20084;-32
2021/06/07 10:08:05;;;;;;;5.57;3.05;;;;;;;28.74;37.55;97037.56;5053051;28;19940;-34
2021/06/07 10:10:30;;;;;;;6.05;3.08;;;;;;;28.74;37.34;97040.22;5034714;28;20025;-35
2021/06/07 10:13:03;;;;;;;5.75;2.90;;;;;;;28.74;37.55;97037.56;5034346;28;20033;-34
2021/06/07 10:15:39;;;;;;;7.70;3.60;;;;;;;28.73;37.49;97033.25;5029597;28;20029;-34
2021/06/07 10:18:08;;;;;;;6.43;2.85;;;;;;;28.75;37.46;97036.66;5036541;28;20116;-35
2021/06/07 10:20:47;;;;;;;7.88;3.20;;;;;;;28.75;37.41;97034.00;5043947;28;20041;-36
2021/06/07 10:23:13;;;;;;;5.80;2.70;;;;;;;28.76;37.46;97033.06;5030577;28;20056;-36
2021/06/07 10:25:38;;;;;;;6.43;3.00;;;;;;;28.76;37.51;97033.91;5020603;28;20110;-34
2021/06/07 10:28:04;;;;;;;5.90;3.00;;;;;;;28.77;37.48;97034.75;5022460;28;20040;-35
2021/06/07 10:30:29;;;;;;;7.03;2.70;;;;;;;28.79;37.49;97027.59;5029729;28;20053;-35
2021/06/07 10:32:55;;;;;;;5.28;2.67;;;;;;;28.79;37.44;97039.00;5026250;28;20379;-32
2021/06/07 10:35:31;;;;;;;6.60;3.00;;;;;;;28.79;37.43;97032.84;5026551;28;20028;-36
2021/06/07 10:38:08;;;;;;;5.22;2.95;;;;;;;28.80;37.46;97034.56;5010551;28;20147;-34
2021/06/07 10:40:34;;;;;;;7.10;2.97;;;;;;;28.80;37.53;97039.84;5024662;28;20683;-37
2021/06/07 10:43:10;;;;;;;6.53;2.90;;;;;;;28.80;37.67;97043.31;5019867;28;20036;-38
2021/06/07 10:45:38;;;;;;;7.20;2.70;;;;;;;28.80;37.54;97039.84;5026271;28;20037;-34
2021/06/07 10:48:05;;;;;;;6.35;2.78;;;;;;;28.80;37.31;97042.50;5025004;28;20032;-36
2021/06/07 10:50:32;;;;;;;5.10;2.35;;;;;;;28.81;37.54;97038.91;5026006;28;20012;-35
2021/06/07 10:53:01;;;;;;;4.25;2.45;;;;;;;28.82;37.53;97043.22;5019607;28;20858;-35
2021/06/07 10:55:35;;;;;;;5.13;3.47;;;;;;;28.82;37.78;97048.50;5016756;28;20265;-36
2021/06/07 10:58:01;;;;;;;6.13;3.88;;;;;;;28.80;37.51;97045.94;5023296;28;20729;-37
2021/06/07 11:00:32;;;;;;;7.38;3.95;;;;;;;28.77;37.85;97040.03;5024446;28;20045;-40
2021/06/07 11:03:00;;;;;;;6.70;4.70;;;;;;;28.74;37.88;97040.22;5025157;28;20029;-35
2021/06/07 11:05:28;;;;;;;6.15;4.28;;;;;;;28.70;38.07;97036.91;5021937;28;20444;-35
2021/06/07 11:08:30;;;;;;;5.03;3.47;;;;;;;28.67;37.93;97042.38;5024391;28;20686;-38
2021/06/07 11:11:00;;;;;;;6.72;4.05;;;;;;;28.63;38.11;97043.50;5026488;28;20032;-34
2021/06/07 11:13:27;;;;;;;5.80;4.35;;;;;;;28.58;38.10;97032.41;5024834;28;20048;-36
2021/06/07 11:15:56;;;;;;;7.13;4.38;;;;;;;28.55;38.08;97038.69;5018341;28;20111;-34
2021/06/07 11:18:26;;;;;;;5.65;4.30;;;;;;;28.51;37.96;97030.16;5023586;28;20120;-36
2021/06/07 11:20:57;;;;;;;5.65;4.20;;;;;;;28.48;38.27;97034.72;5022918;28;20028;-39
2021/06/07 11:23:43;;;;;;;;;;;;;;;28.46;38.22;97036.63;5019896;28;20648;-37
2021/06/07 11:26:12;;;;;;;4.38;3.97;;;;;;;28.42;38.27;97031.53;5026409;28;19924;-32
2021/06/07 11:28:48;;;;;;;6.97;4.60;;;;;;;28.40;38.47;97028.16;5024829;28;20098;-35
2021/06/07 11:31:19;;;;;;;6.50;4.30;;;;;;;28.36;38.38;97031.91;5025478;28;20037;-38
2021/06/07 11:33:52;;;;;;;5.13;4.20;;;;;;;28.35;38.35;97030.22;5022055;28;20027;-36